Time;durP1;ratioP1;P1;durP2;ratioP2;P2;SDS_P1;SDS_P2;PMS_P1;PMS_P2;Temp;Humidity;BMP_temperature;BMP_pressure;BME280_temperature;BME280_humidity;BME280_pressure;Samples;Min_cycle;Max_cycle;Signal;HPM_P1;HPM_P2
2021/08/28 00:00:18;;;;;;;19.20;5.33;;;16.40;99.90;;;;;;8273515;28;20762;-80
2021/08/28 00:04:18;;;;;;;8.13;4.93;;;16.40;99.90;;;;;;8245770;28;20237;-82
2021/08/28 00:08:19;;;;;;;8.83;5.00;;;16.40;99.90;;;;;;8275489;28;20183;-78
2021/08/28 00:12:20;;;;;;;11.50;6.23;;;16.40;99.90;;;;;;8275577;28;20188;-82
2021/08/28 00:16:20;;;;;;;10.80;6.30;;;16.40;99.90;;;;;;8270191;28;20197;-79
2021/08/28 00:20:21;;;;;;;10.63;5.07;;;16.40;99.90;;;;;;8257092;28;20202;-79
2021/08/28 00:24:22;;;;;;;12.97;5.90;;;16.40;99.90;;;;;;8275053;28;20187;-80
2021/08/28 00:28:22;;;;;;;11.83;6.43;;;16.40;99.90;;;;;;8249980;28;20567;-80
2021/08/28 00:32:23;;;;;;;18.80;6.57;;;16.50;99.90;;;;;;8245257;28;20343;-82
2021/08/28 00:36:23;;;;;;;18.07;7.60;;;16.40;99.90;;;;;;8261726;28;20177;-77
2021/08/28 00:40:24;;;;;;;18.77;10.00;;;16.40;99.90;;;;;;8255876;28;20202;-80
2021/08/28 00:44:25;;;;;;;26.83;11.27;;;16.40;99.90;;;;;;8253300;28;20570;-79
2021/08/28 00:48:26;;;;;;;25.90;12.40;;;16.50;99.90;;;;;;8253371;28;20561;-80
2021/08/28 00:52:27;;;;;;;32.90;14.10;;;16.50;99.90;;;;;;8255264;28;20433;-81
2021/08/28 00:56:29;;;;;;;38.37;16.50;;;16.50;99.90;;;;;;8255584;28;20191;-79
2021/08/28 01:00:34;;;;;;;25.80;15.53;;;16.50;99.90;;;;;;8247863;28;20210;-83
2021/08/28 01:04:51;;;;;;;37.97;17.80;;;16.50;99.90;;;;;;8445210;23;20487;-78
2021/08/28 01:09:02;;;;;;;34.40;19.90;;;16.50;99.90;;;;;;8248248;28;20830;-78
2021/08/28 01:13:08;;;;;;;40.20;18.60;;;16.50;99.90;;;;;;8247498;28;20511;-80
2021/08/28 01:17:12;;;;;;;37.13;19.60;;;16.60;99.90;;;;;;8242872;28;20470;-78
2021/08/28 01:21:28;;;;;;;34.10;19.43;;;16.50;99.90;;;;;;8264951;28;20439;-82
2021/08/28 01:25:29;;;;;;;38.97;20.90;;;16.50;99.90;;;;;;8255730;28;20439;-81
2021/08/28 01:29:32;;;;;;;36.27;22.13;;;16.60;99.90;;;;;;8251477;28;20464;-80
2021/08/28 01:33:33;;;;;;;44.00;22.50;;;16.60;99.90;;;;;;8250072;28;20584;-83
2021/08/28 01:37:34;;;;;;;41.00;22.50;;;16.60;99.90;;;;;;8249281;28;20484;-85
2021/08/28 01:41:37;;;;;;;44.70;22.53;;;16.60;99.90;;;;;;8253640;28;20460;-78
2021/08/28 01:45:38;;;;;;;45.10;22.07;;;16.60;99.90;;;;;;8252734;28;20474;-81
2021/08/28 01:49:40;;;;;;;44.77;20.63;;;16.60;99.90;;;;;;8240036;28;20456;-86
2021/08/28 01:53:41;;;;;;;38.53;17.33;;;16.60;99.90;;;;;;8261917;28;20207;-77
2021/08/28 01:57:43;;;;;;;25.30;15.73;;;16.60;99.90;;;;;;8253974;28;20824;-78
2021/08/28 02:01:43;;;;;;;28.53;16.90;;;16.60;99.90;;;;;;8246588;28;20185;-79
2021/08/28 02:05:48;;;;;;;39.00;17.00;;;16.60;99.90;;;;;;8246376;28;20476;-78
2021/08/28 02:10:03;;;;;;;27.87;17.10;;;16.50;99.90;;;;;;8252024;28;20183;-80
2021/08/28 02:14:14;;;;;;;33.53;18.33;;;16.50;99.90;;;;;;8268310;28;20456;-80
2021/08/28 02:18:30;;;;;;;31.93;19.00;;;16.50;99.90;;;;;;8249023;28;20477;-83
2021/08/28 02:22:37;;;;;;;41.63;20.23;;;16.50;99.90;;;;;;8241410;28;20449;-77
2021/08/28 02:26:45;;;;;;;38.87;18.80;;;16.50;99.90;;;;;;8260044;28;20475;-80
2021/08/28 02:30:46;;;;;;;34.70;21.20;;;16.50;99.90;;;;;;8251723;28;20448;-82
2021/08/28 02:34:48;;;;;;;34.03;20.33;;;16.50;99.90;;;;;;8260030;28;20897;-84
2021/08/28 02:38:50;;;;;;;44.03;22.03;;;16.50;99.90;;;;;;8251564;28;20213;-80
2021/08/28 02:42:51;;;;;;;35.37;20.80;;;16.50;99.90;;;;;;8251320;28;20535;-79
2021/08/28 02:46:53;;;;;;;38.97;20.83;;;16.50;99.90;;;;;;8248176;28;20432;-78
2021/08/28 02:50:57;;;;;;;36.10;20.80;;;16.50;99.90;;;;;;8253227;28;20788;-83
2021/08/28 02:55:00;;;;;;;34.70;20.50;;;16.50;99.90;;;;;;8247316;28;20473;-77
2021/08/28 02:59:01;;;;;;;32.00;19.43;;;16.50;99.90;;;;;;8243021;28;20470;-80
2021/08/28 03:03:03;;;;;;;31.20;17.40;;;16.50;99.90;;;;;;8245335;28;20481;-85
2021/08/28 03:07:05;;;;;;;36.47;21.27;;;16.50;99.90;;;;;;8257416;28;20192;-81
2021/08/28 03:11:06;;;;;;;28.93;19.20;;;16.50;99.90;;;;;;8259741;28;20445;-78
2021/08/28 03:15:07;;;;;;;38.90;19.77;;;16.50;99.90;;;;;;8248098;28;20442;-83
2021/08/28 03:19:10;;;;;;;34.17;22.30;;;16.50;99.90;;;;;;8255545;28;20467;-79
2021/08/28 03:23:12;;;;;;;49.30;24.87;;;16.50;99.90;;;;;;8257799;28;20472;-78
2021/08/28 03:27:14;;;;;;;44.50;24.80;;;16.50;99.90;;;;;;8247115;28;20464;-80
2021/08/28 03:31:22;;;;;;;40.73;25.30;;;16.50;99.90;;;;;;8244621;28;20997;-82
2021/08/28 03:35:24;;;;;;;44.73;27.60;;;16.50;99.90;;;;;;8261142;28;20473;-83
2021/08/28 03:39:26;;;;;;;48.27;26.43;;;16.40;99.90;;;;;;8256661;28;20480;-84
2021/08/28 03:43:26;;;;;;;44.57;26.07;;;16.40;99.90;;;;;;8264423;28;20468;-78
2021/08/28 03:47:27;;;;;;;45.47;24.80;;;16.40;99.90;;;;;;8254229;28;20449;-78
2021/08/28 03:51:27;;;;;;;35.63;25.00;;;16.40;99.90;;;;;;8253469;28;20278;-78
2021/08/28 03:55:28;;;;;;;37.30;22.63;;;16.50;99.90;;;;;;8249147;28;20190;-83
2021/08/28 03:59:29;;;;;;;32.30;22.13;;;16.40;99.90;;;;;;8251137;28;20534;-79
2021/08/28 04:03:29;;;;;;;29.43;21.03;;;16.40;99.90;;;;;;8251229;28;20481;-77
2021/08/28 04:07:30;;;;;;;31.67;20.07;;;16.40;99.90;;;;;;8252416;28;20185;-79
2021/08/28 04:11:30;;;;;;;42.20;23.60;;;16.40;99.90;;;;;;8247864;28;20243;-80
2021/08/28 04:15:31;;;;;;;40.50;22.97;;;16.40;99.90;;;;;;8263666;28;20193;-79
2021/08/28 04:19:32;;;;;;;51.33;26.40;;;16.40;99.90;;;;;;8247023;28;20646;-78
2021/08/28 04:23:32;;;;;;;43.53;23.27;;;16.40;99.90;;;;;;8250795;28;20217;-79
2021/08/28 04:27:33;;;;;;;47.07;25.67;;;16.40;99.90;;;;;;8252380;28;20213;-80
2021/08/28 04:31:34;;;;;;;48.50;23.50;;;16.30;99.90;;;;;;8241572;28;20191;-79
2021/08/28 04:35:35;;;;;;;40.40;21.30;;;16.40;99.90;;;;;;8275176;28;20345;-77
2021/08/28 04:39:35;;;;;;;32.00;20.50;;;16.40;99.90;;;;;;8244677;28;20295;-81
2021/08/28 04:43:36;;;;;;;39.20;19.50;;;16.40;99.90;;;;;;8265181;28;20441;-77
2021/08/28 04:47:36;;;;;;;43.77;21.67;;;16.40;99.90;;;;;;8243514;28;20189;-80
2021/08/28 04:51:37;;;;;;;56.83;25.70;;;16.30;99.90;;;;;;8249818;28;20321;-77
2021/08/28 04:55:38;;;;;;;51.63;25.63;;;16.30;99.90;;;;;;8248300;28;20193;-79
2021/08/28 04:59:38;;;;;;;55.77;26.93;;;16.30;99.90;;;;;;8245283;28;20223;-78
2021/08/28 05:03:39;;;;;;;46.70;22.87;;;16.40;99.90;;;;;;8255534;28;20224;-77
2021/08/28 05:07:39;;;;;;;51.83;25.00;;;16.40;99.90;;;;;;8245246;28;20240;-79
2021/08/28 05:11:40;;;;;;;58.53;27.73;;;16.40;99.90;;;;;;8247916;28;20187;-77
2021/08/28 05:15:41;;;;;;;69.70;31.00;;;16.40;99.90;;;;;;8241854;28;20182;-77
2021/08/28 05:19:41;;;;;;;91.57;35.83;;;16.50;99.90;;;;;;8240523;28;20229;-78
2021/08/28 05:23:42;;;;;;;120.10;42.47;;;16.50;99.90;;;;;;8252424;28;20186;-78
2021/08/28 05:27:42;;;;;;;110.77;39.70;;;16.50;99.90;;;;;;8246913;28;20190;-78
2021/08/28 05:31:44;;;;;;;107.07;40.17;;;16.50;99.90;;;;;;8246434;28;20189;-77
2021/08/28 05:35:44;;;;;;;99.20;40.40;;;16.50;99.90;;;;;;8242592;28;20486;-78
2021/08/28 05:39:45;;;;;;;98.10;38.10;;;16.50;99.90;;;;;;8244101;28;20464;-78
2021/08/28 05:43:46;;;;;;;79.70;36.87;;;16.50;99.90;;;;;;8256173;28;20197;-77
2021/08/28 05:47:46;;;;;;;81.17;38.60;;;16.50;99.90;;;;;;8265588;28;20245;-78
2021/08/28 05:51:47;;;;;;;57.50;29.40;;;16.50;99.90;;;;;;8238574;28;20308;-78
2021/08/28 05:55:47;;;;;;;50.20;27.70;;;16.50;99.90;;;;;;8250434;28;20537;-78
2021/08/28 05:59:48;;;;;;;47.47;27.33;;;16.50;99.90;;;;;;8240654;28;20213;-79
2021/08/28 06:03:49;;;;;;;42.03;24.80;;;16.50;99.90;;;;;;8249437;28;20229;-79
2021/08/28 06:07:49;;;;;;;38.33;21.50;;;16.50;99.90;;;;;;8254665;28;20650;-81
2021/08/28 06:11:50;;;;;;;40.17;21.20;;;16.50;99.90;;;;;;8246382;28;20202;-80
2021/08/28 06:15:50;;;;;;;44.53;23.00;;;16.60;99.90;;;;;;8250333;28;20712;-78
2021/08/28 06:19:51;;;;;;;55.23;25.47;;;16.60;99.90;;;;;;8243692;28;20232;-79
2021/08/28 06:23:52;;;;;;;70.83;34.17;;;16.60;99.90;;;;;;8240061;28;20185;-85
2021/08/28 06:27:53;;;;;;;70.20;34.00;;;16.60;99.90;;;;;;8248288;28;20191;-78
2021/08/28 06:31:53;;;;;;;67.63;32.57;;;16.50;99.90;;;;;;8253780;28;20784;-79
2021/08/28 06:35:54;;;;;;;64.57;29.10;;;16.50;99.90;;;;;;8259979;28;20204;-80
2021/08/28 06:39:55;;;;;;;52.17;25.73;;;16.60;99.90;;;;;;8254101;28;20783;-79
2021/08/28 06:43:55;;;;;;;55.10;27.30;;;16.60;99.90;;;;;;8261198;28;20223;-78
2021/08/28 06:47:56;;;;;;;59.83;29.30;;;16.70;99.90;;;;;;8253424;28;20937;-78
2021/08/28 06:51:56;;;;;;;44.17;24.10;;;16.70;99.90;;;;;;8256143;28;20272;-81
2021/08/28 06:55:57;;;;;;;40.00;25.60;;;16.80;99.90;;;;;;8263483;28;20182;-81
2021/08/28 06:59:58;;;;;;;38.23;23.07;;;16.80;99.90;;;;;;8285515;28;20219;-79
2021/08/28 07:03:59;;;;;;;42.20;23.90;;;16.80;99.90;;;;;;8260282;28;20271;-80
2021/08/28 07:08:00;;;;;;;43.97;22.57;;;16.80;99.90;;;;;;8256403;28;20915;-81
2021/08/28 07:12:00;;;;;;;35.00;21.90;;;16.80;99.90;;;;;;8257235;28;20237;-80
2021/08/28 07:16:01;;;;;;;23.20;14.57;;;17.00;99.90;;;;;;8263045;28;20236;-79
2021/08/28 07:20:04;;;;;;;18.43;13.50;;;17.10;99.90;;;;;;8285284;28;20935;-83
2021/08/28 07:24:05;;;;;;;20.83;13.93;;;17.10;99.90;;;;;;8250904;28;20172;-82
2021/08/28 07:28:07;;;;;;;19.20;13.80;;;17.20;99.90;;;;;;8271968;28;20965;-79
2021/08/28 07:32:08;;;;;;;20.40;14.73;;;17.10;99.90;;;;;;8269224;28;20237;-81
2021/08/28 07:36:09;;;;;;;22.93;15.63;;;17.10;99.90;;;;;;8269211;28;20451;-82
2021/08/28 07:40:10;;;;;;;19.23;14.20;;;17.00;99.90;;;;;;8261987;28;20469;-79
2021/08/28 07:44:11;;;;;;;22.57;17.03;;;17.00;99.90;;;;;;8269164;28;20184;-86
2021/08/28 07:48:11;;;;;;;24.40;18.80;;;17.00;99.90;;;;;;8262231;28;20188;-79
2021/08/28 07:52:14;;;;;;;34.77;21.70;;;17.10;99.90;;;;;;8253172;28;20693;-79
2021/08/28 07:56:15;;;;;;;38.13;24.97;;;17.40;99.90;;;;;;8260255;28;20209;-81
2021/08/28 08:00:16;;;;;;;33.70;25.80;;;17.60;99.90;;;;;;8258709;28;20466;-82
2021/08/28 08:04:16;;;;;;;37.27;27.30;;;17.70;99.90;;;;;;8252982;28;20267;-82
2021/08/28 08:08:17;;;;;;;38.17;28.03;;;17.80;99.90;;;;;;8253293;28;20457;-81
2021/08/28 08:12:17;;;;;;;41.60;28.67;;;17.80;99.90;;;;;;8256230;28;20231;-79
2021/08/28 08:16:18;;;;;;;34.37;26.10;;;17.70;99.90;;;;;;8255051;28;20189;-80
2021/08/28 08:20:19;;;;;;;36.80;25.40;;;17.70;99.90;;;;;;8260879;28;20213;-81
2021/08/28 08:24:19;;;;;;;43.00;28.33;;;17.60;99.90;;;;;;8269735;28;20219;-81
2021/08/28 08:28:20;;;;;;;36.57;26.23;;;17.60;99.90;;;;;;8259210;28;20715;-80
2021/08/28 08:32:20;;;;;;;39.53;27.43;;;17.60;99.90;;;;;;8278892;28;20204;-79
2021/08/28 08:36:21;;;;;;;36.70;25.03;;;17.70;99.90;;;;;;8248137;28;20201;-79
2021/08/28 08:40:22;;;;;;;34.40;25.33;;;17.80;99.90;;;;;;8265869;28;20303;-80
2021/08/28 08:44:23;;;;;;;32.23;25.07;;;17.80;99.90;;;;;;8262176;28;20181;-79
2021/08/28 08:48:24;;;;;;;32.07;24.73;;;17.90;99.90;;;;;;8271194;28;20679;-78
2021/08/28 08:52:25;;;;;;;32.57;24.50;;;18.00;99.90;;;;;;8248345;28;20466;-79
2021/08/28 08:56:26;;;;;;;30.90;24.40;;;18.00;99.90;;;;;;8268852;28;20210;-79
2021/08/28 09:00:27;;;;;;;35.00;27.83;;;18.10;99.90;;;;;;8254194;28;20839;-81
2021/08/28 09:04:27;;;;;;;36.50;26.13;;;18.20;99.90;;;;;;8257805;28;20250;-82
2021/08/28 09:08:28;;;;;;;30.10;23.50;;;18.50;99.90;;;;;;8258023;28;20560;-80
2021/08/28 09:12:37;;;;;;;33.37;24.20;;;18.60;99.90;;;;;;8257224;28;20185;-80
2021/08/28 09:16:38;;;;;;;20.57;17.80;;;18.70;99.90;;;;;;8257515;28;20650;-79
2021/08/28 09:20:39;;;;;;;24.50;19.90;;;18.70;99.90;;;;;;8257661;28;20466;-82
2021/08/28 09:24:47;;;;;;;32.63;19.50;;;18.70;99.90;;;;;;8256941;28;20193;-82
2021/08/28 09:28:56;;;;;;;14.60;12.30;;;18.60;99.90;;;;;;8259380;28;21092;-81
2021/08/28 09:33:02;;;;;;;13.73;12.43;;;18.60;99.90;;;;;;8269322;28;20445;-79
2021/08/28 09:37:06;;;;;;;13.47;11.77;;;18.50;99.90;;;;;;8248098;28;20857;-82
2021/08/28 09:41:07;;;;;;;18.17;14.27;;;18.40;99.90;;;;;;8258765;28;20476;-81
2021/08/28 09:45:10;;;;;;;17.53;15.10;;;18.40;99.90;;;;;;8264154;28;20443;-80
2021/08/28 09:49:10;;;;;;;17.30;15.60;;;18.40;99.90;;;;;;8254317;28;20444;-85
2021/08/28 09:53:21;;;;;;;17.57;15.60;;;18.30;99.90;;;;;;8252254;28;20451;-83
2021/08/28 09:57:31;;;;;;;20.47;18.37;;;18.40;99.90;;;;;;8254246;28;20585;-82
2021/08/28 10:01:34;;;;;;;19.50;14.90;;;18.50;99.90;;;;;;8253161;28;21218;-83
2021/08/28 10:05:37;;;;;;;19.50;15.23;;;18.50;99.90;;;;;;8256678;28;20479;-82
2021/08/28 10:09:38;;;;;;;22.23;17.27;;;18.60;99.90;;;;;;8257513;28;20444;-81
2021/08/28 10:13:39;;;;;;;13.30;12.00;;;18.70;99.90;;;;;;8259734;28;21200;-87
2021/08/28 10:17:41;;;;;;;11.07;10.07;;;18.70;99.90;;;;;;8239908;28;20216;-78
2021/08/28 10:21:46;;;;;;;16.83;14.10;;;18.50;99.90;;;;;;8251073;28;20462;-81
2021/08/28 10:25:50;;;;;;;16.47;14.43;;;18.20;99.90;;;;;;8244781;28;20440;-81
2021/08/28 10:29:51;;;;;;;19.23;17.03;;;18.10;99.90;;;;;;8248506;28;20469;-81
2021/08/28 10:33:52;;;;;;;13.63;12.23;;;18.20;99.90;;;;;;8276049;28;20447;-82
2021/08/28 10:37:53;;;;;;;16.83;14.30;;;18.50;99.90;;;;;;8245341;28;20592;-80
2021/08/28 10:41:54;;;;;;;14.63;11.60;;;18.80;99.90;;;;;;8252140;28;20247;-80
2021/08/28 10:45:55;;;;;;;11.80;10.70;;;19.10;99.90;;;;;;8248161;28;20452;-80
2021/08/28 10:50:04;;;;;;;17.60;11.10;;;19.30;99.90;;;;;;8242679;28;20472;-78
2021/08/28 10:54:12;;;;;;;13.73;12.37;;;19.30;99.90;;;;;;8269517;28;20185;-78
2021/08/28 10:58:17;;;;;;;13.93;10.77;;;19.40;99.90;;;;;;8251114;28;20464;-80
2021/08/28 11:02:17;;;;;;;14.93;11.57;;;19.70;99.90;;;;;;8237780;28;21075;-79
2021/08/28 11:06:21;;;;;;;17.47;12.80;;;20.10;99.90;;;;;;8240574;28;20418;-80
2021/08/28 11:10:25;;;;;;;12.43;11.23;;;20.50;99.90;;;;;;8239328;28;20185;-79
2021/08/28 11:14:44;;;;;;;12.67;11.40;;;21.00;99.90;;;;;;8243705;28;21228;-80
2021/08/28 11:18:44;;;;;;;11.03;9.93;;;21.30;99.90;;;;;;8235485;28;20476;-81
2021/08/28 11:22:46;;;;;;;10.27;8.87;;;22.00;99.90;;;;;;8246612;28;20978;-80
2021/08/28 11:26:54;;;;;;;12.33;9.50;;;22.60;99.90;;;;;;8240381;28;20189;-79
2021/08/28 11:30:56;;;;;;;10.13;9.00;;;23.00;99.90;;;;;;8232270;28;20897;-80
2021/08/28 11:34:59;;;;;;;9.70;8.80;;;23.20;99.60;;;;;;8246152;28;20806;-80
2021/08/28 11:39:00;;;;;;;11.40;10.20;;;23.30;99.90;;;;;;8252361;28;20475;-80
2021/08/28 11:43:00;;;;;;;13.13;11.73;;;23.00;98.50;;;;;;8252473;28;20500;-81
2021/08/28 11:47:02;;;;;;;9.70;8.70;;;22.50;98.20;;;;;;8246474;28;20670;-80
2021/08/28 11:51:29;;;;;;;14.80;10.93;;;22.20;99.50;;;;;;8254618;28;20598;-82
2021/08/28 11:55:36;;;;;;;12.80;10.90;;;22.30;99.50;;;;;;8256077;28;20450;-81
2021/08/28 11:59:39;;;;;;;18.80;10.73;;;22.20;99.30;;;;;;8250979;28;20485;-82
2021/08/28 12:03:40;;;;;;;13.00;10.50;;;22.10;99.00;;;;;;8243518;28;20554;-80
2021/08/28 12:07:41;;;;;;;12.43;10.03;;;21.90;99.70;;;;;;8243722;28;20439;-80
2021/08/28 12:11:47;;;;;;;11.80;10.40;;;21.80;99.90;;;;;;8245806;28;20184;-81
2021/08/28 12:15:48;;;;;;;10.73;9.20;;;22.00;99.70;;;;;;8268750;28;20185;-83
2021/08/28 12:19:49;;;;;;;9.10;8.20;;;22.10;99.50;;;;;;8276510;28;20476;-79
2021/08/28 12:23:50;;;;;;;8.60;7.70;;;22.20;99.40;;;;;;8251115;28;20651;-82
2021/08/28 12:27:52;;;;;;;13.40;8.03;;;22.20;99.10;;;;;;8248061;28;20190;-81
2021/08/28 12:32:06;;;;;;;9.43;7.67;;;22.10;99.20;;;;;;8264555;28;20232;-82
2021/08/28 12:36:34;;;;;;;9.13;8.13;;;22.00;99.20;;;;;;8256413;28;20660;-84
2021/08/28 12:40:35;;;;;;;12.80;6.87;;;22.10;98.70;;;;;;8250418;28;20469;-81
2021/08/28 12:44:37;;;;;;;10.47;7.30;;;22.00;98.20;;;;;;8264394;28;20807;-81
2021/08/28 12:48:38;;;;;;;7.07;6.37;;;22.10;98.10;;;;;;8247079;28;20177;-80
2021/08/28 12:52:42;;;;;;;8.27;7.47;;;22.10;98.00;;;;;;8250429;28;20454;-81
2021/08/28 12:56:51;;;;;;;10.33;7.70;;;22.30;98.10;;;;;;8246276;28;20178;-81
2021/08/28 13:01:01;;;;;;;8.53;6.90;;;23.00;97.90;;;;;;8240446;28;21476;-79
2021/08/28 13:05:04;;;;;;;7.40;6.47;;;23.80;96.40;;;;;;8241153;28;20512;-82
2021/08/28 13:09:17;;;;;;;8.83;6.50;;;24.20;94.90;;;;;;8243419;28;21458;-78
2021/08/28 13:13:17;;;;;;;5.70;5.20;;;24.30;94.40;;;;;;8244544;28;20451;-80
2021/08/28 13:17:25;;;;;;;5.30;4.80;;;24.10;94.90;;;;;;8249144;28;20946;-80
2021/08/28 13:21:38;;;;;;;10.63;5.30;;;23.90;93.90;;;;;;8241821;28;20184;-82
2021/08/28 13:25:41;;;;;;;4.90;4.50;;;23.80;93.50;;;;;;8234591;28;20556;-80
2021/08/28 13:29:42;;;;;;;4.20;3.90;;;23.60;94.00;;;;;;8241497;28;20446;-81
2021/08/28 13:33:42;;;;;;;4.70;4.10;;;23.80;93.80;;;;;;8240267;28;20940;-78
2021/08/28 13:37:43;;;;;;;5.63;4.87;;;23.80;93.80;;;;;;8243469;28;20213;-80
2021/08/28 13:41:44;;;;;;;4.67;4.27;;;23.70;93.20;;;;;;8260744;28;20255;-79
2021/08/28 13:45:44;;;;;;;5.13;4.73;;;23.40;93.60;;;;;;8238193;28;20197;-80
2021/08/28 13:49:45;;;;;;;5.30;4.90;;;22.90;93.80;;;;;;8242538;28;20189;-79
2021/08/28 13:53:46;;;;;;;6.27;5.67;;;22.50;95.10;;;;;;8242340;28;20600;-80
2021/08/28 13:57:47;;;;;;;7.73;5.83;;;22.00;96.10;;;;;;8256983;28;20224;-79
2021/08/28 14:01:48;;;;;;;6.80;6.17;;;21.60;96.50;;;;;;8259322;28;20204;-79
2021/08/28 14:05:49;;;;;;;8.27;6.97;;;21.30;96.80;;;;;;8257851;28;20477;-79
2021/08/28 14:09:52;;;;;;;8.47;7.77;;;21.20;97.20;;;;;;8249230;28;20213;-79
2021/08/28 14:13:52;;;;;;;7.97;7.27;;;21.30;97.60;;;;;;8245415;28;20198;-78
2021/08/28 14:17:53;;;;;;;7.90;7.17;;;21.60;97.50;;;;;;8246190;28;20462;-78
2021/08/28 14:21:55;;;;;;;6.57;5.97;;;21.90;97.30;;;;;;8244361;28;21283;-78
2021/08/28 14:25:56;;;;;;;8.67;7.77;;;22.10;97.30;;;;;;8231613;28;20514;-78
2021/08/28 14:29:57;;;;;;;7.10;6.50;;;22.20;97.10;;;;;;8235621;28;20964;-78
2021/08/28 14:33:58;;;;;;;10.83;6.73;;;22.10;96.30;;;;;;8223406;28;20201;-78
2021/08/28 14:37:58;;;;;;;8.33;7.63;;;22.00;97.10;;;;;;8234799;28;20212;-78
2021/08/28 14:41:59;;;;;;;10.80;9.70;;;22.00;97.30;;;;;;8237564;28;20947;-76
2021/08/28 14:45:59;;;;;;;8.80;8.00;;;22.40;97.30;;;;;;8228675;28;20188;-79
2021/08/28 14:50:00;;;;;;;10.13;8.13;;;23.00;97.00;;;;;;8229612;28;20675;-79
2021/08/28 14:54:01;;;;;;;8.97;7.83;;;23.30;96.40;;;;;;8224945;28;20193;-82
2021/08/28 14:58:01;;;;;;;8.43;7.67;;;23.40;96.20;;;;;;8226566;28;20220;-79
2021/08/28 15:02:02;;;;;;;10.80;6.70;;;23.50;96.20;;;;;;8221013;28;20193;-80
2021/08/28 15:06:03;;;;;;;9.93;8.33;;;23.50;95.30;;;;;;8216366;28;20182;-79
2021/08/28 15:10:05;;;;;;;7.50;6.80;;;23.40;96.00;;;;;;8245128;23;20327;-72
2021/08/28 15:14:05;;;;;;;10.27;7.77;;;23.40;96.40;;;;;;8236180;28;21243;-77
2021/08/28 15:18:06;;;;;;;11.30;8.87;;;23.40;96.10;;;;;;8249983;28;20502;-80
2021/08/28 15:22:07;;;;;;;9.70;8.90;;;23.30;96.30;;;;;;8239182;28;20197;-79
2021/08/28 15:26:08;;;;;;;8.00;7.07;;;23.10;96.80;;;;;;8240186;28;20196;-78
2021/08/28 15:30:08;;;;;;;6.50;5.97;;;22.90;97.00;;;;;;8231775;28;20229;-85
2021/08/28 15:34:09;;;;;;;7.17;6.10;;;23.00;96.60;;;;;;8226577;28;20237;-83
2021/08/28 15:38:09;;;;;;;10.73;6.17;;;23.20;95.60;;;;;;8239260;28;20728;-78
2021/08/28 15:42:10;;;;;;;7.00;6.40;;;23.10;95.70;;;;;;8238680;28;20240;-81
2021/08/28 15:46:14;;;;;;;7.53;6.83;;;23.10;95.40;;;;;;8239543;28;20909;-78
2021/08/28 15:50:16;;;;;;;7.27;6.60;;;23.00;95.40;;;;;;8240272;28;20197;-79
2021/08/28 15:54:18;;;;;;;8.07;7.27;;;22.90;96.10;;;;;;8235009;28;20524;-78
2021/08/28 15:58:21;;;;;;;8.10;7.40;;;22.70;96.50;;;;;;8240904;28;20454;-79
2021/08/28 16:02:22;;;;;;;9.20;8.30;;;22.50;96.90;;;;;;8247147;28;20828;-84
2021/08/28 16:06:22;;;;;;;9.20;8.30;;;22.20;97.60;;;;;;8238883;28;20444;-82
2021/08/28 16:10:24;;;;;;;9.07;8.13;;;21.80;98.10;;;;;;8238359;28;20609;-77
2021/08/28 16:14:25;;;;;;;11.73;9.80;;;21.50;98.80;;;;;;8236489;28;20272;-81
2021/08/28 16:18:26;;;;;;;13.23;11.30;;;21.20;99.40;;;;;;8242565;28;20465;-77
2021/08/28 16:22:26;;;;;;;17.50;11.50;;;21.10;99.90;;;;;;8241297;28;20675;-78
2021/08/28 16:26:27;;;;;;;12.80;11.40;;;20.90;99.90;;;;;;8258676;28;20220;-80
2021/08/28 16:30:28;;;;;;;12.40;11.10;;;20.80;99.90;;;;;;8242455;28;20206;-80
2021/08/28 16:34:29;;;;;;;12.47;11.37;;;20.60;99.90;;;;;;8261195;28;20189;-75
2021/08/28 16:38:30;;;;;;;13.80;12.20;;;20.40;99.90;;;;;;8239389;28;20506;-85
2021/08/28 16:42:31;;;;;;;14.50;13.00;;;20.20;99.90;;;;;;8244240;28;20915;-81
2021/08/28 16:46:32;;;;;;;24.17;17.40;;;20.00;99.90;;;;;;8243009;28;20504;-78
2021/08/28 16:50:32;;;;;;;27.90;15.90;;;19.70;99.90;;;;;;8229434;28;20649;-78
2021/08/28 16:54:33;;;;;;;26.27;17.20;;;19.40;99.90;;;;;;8224654;28;20441;-79
2021/08/28 16:58:34;;;;;;;22.13;11.37;;;19.20;99.90;;;;;;8236657;28;20737;-80
2021/08/28 17:02:34;;;;;;;15.33;13.70;;;18.90;99.90;;;;;;8253146;28;20677;-78
2021/08/28 17:06:35;;;;;;;16.87;14.57;;;18.70;99.90;;;;;;8250046;28;20235;-80
2021/08/28 17:10:36;;;;;;;16.83;15.07;;;18.50;99.90;;;;;;8235176;28;20247;-78
2021/08/28 17:14:38;;;;;;;15.87;13.17;;;18.50;99.90;;;;;;8243343;28;20410;-80
2021/08/28 17:18:38;;;;;;;17.00;14.60;;;18.40;99.90;;;;;;8236317;28;20399;-81
2021/08/28 17:22:40;;;;;;;16.10;14.47;;;18.30;99.90;;;;;;8235164;28;21119;-80
2021/08/28 17:26:41;;;;;;;20.23;15.80;;;18.20;99.90;;;;;;8230829;28;21231;-79
2021/08/28 17:30:41;;;;;;;22.00;18.20;;;18.20;99.90;;;;;;8261292;28;20446;-80
2021/08/28 17:34:42;;;;;;;17.03;15.40;;;18.20;99.90;;;;;;8241574;28;20273;-80
2021/08/28 17:38:42;;;;;;;12.17;11.13;;;18.20;99.90;;;;;;8240048;28;20217;-80
2021/08/28 17:42:43;;;;;;;12.93;11.60;;;18.20;99.90;;;;;;8241418;28;20176;-80
2021/08/28 17:46:59;;;;;;;8.77;7.97;;;18.20;99.90;;;;;;5361462;28;10023757;-80
2021/08/28 17:50:59;;;;;;;9.30;8.50;;;18.20;99.90;;;;;;6878977;28;10001396;-81
2021/08/28 17:55:00;;;;;;;11.30;10.20;;;18.20;99.90;;;;;;8241677;28;20498;-77
2021/08/28 17:59:00;;;;;;;10.37;9.47;;;18.20;99.90;;;;;;8237783;28;20224;-78
2021/08/28 18:03:03;;;;;;;10.87;9.80;;;18.20;99.90;;;;;;8241718;28;20635;-79
2021/08/28 18:07:04;;;;;;;10.40;9.30;;;18.30;99.90;;;;;;8247560;28;20474;-80
2021/08/28 18:11:07;;;;;;;13.33;9.60;;;18.30;99.90;;;;;;8229364;28;20485;-79
2021/08/28 18:15:08;;;;;;;11.93;10.57;;;18.30;99.90;;;;;;8225717;28;20548;-79
2021/08/28 18:19:09;;;;;;;13.70;10.20;;;18.30;99.90;;;;;;8232140;28;20544;-80
2021/08/28 18:23:09;;;;;;;10.57;9.57;;;18.30;99.90;;;;;;8239063;28;20455;-79
2021/08/28 18:27:10;;;;;;;17.43;10.93;;;18.30;99.90;;;;;;8245234;28;20217;-81
2021/08/28 18:31:11;;;;;;;10.97;9.50;;;18.30;99.90;;;;;;8238164;28;20859;-80
2021/08/28 18:35:12;;;;;;;12.30;10.67;;;18.30;99.90;;;;;;8235456;28;20474;-80
2021/08/28 18:39:12;;;;;;;12.83;10.20;;;18.30;99.90;;;;;;8258472;28;20278;-81
2021/08/28 18:43:14;;;;;;;15.43;12.13;;;18.20;99.90;;;;;;8247292;28;20216;-79
2021/08/28 18:47:14;;;;;;;13.37;11.13;;;18.20;99.90;;;;;;8247262;28;20242;-79
2021/08/28 18:51:15;;;;;;;19.07;12.40;;;18.20;99.90;;;;;;8246204;28;21020;-81
2021/08/28 18:55:16;;;;;;;20.13;13.43;;;18.20;99.90;;;;;;8247327;28;20265;-79
2021/08/28 18:59:17;;;;;;;22.77;14.07;;;18.20;99.90;;;;;;8250337;28;20212;-81
2021/08/28 19:03:17;;;;;;;17.87;14.97;;;18.20;99.90;;;;;;8237391;28;20489;-79
2021/08/28 19:07:18;;;;;;;27.87;19.03;;;18.30;99.90;;;;;;8257850;28;20243;-78
2021/08/28 19:11:18;;;;;;;32.20;20.10;;;18.20;99.90;;;;;;8243923;28;20195;-80
2021/08/28 19:15:19;;;;;;;40.07;23.63;;;18.20;99.90;;;;;;8239808;28;20196;-79
2021/08/28 19:19:20;;;;;;;33.50;23.03;;;18.20;99.90;;;;;;8237631;28;20205;-78
2021/08/28 19:23:21;;;;;;;38.57;22.60;;;18.20;99.90;;;;;;8238426;28;20206;-82
2021/08/28 19:27:22;;;;;;;41.87;25.77;;;18.10;99.90;;;;;;8257383;28;20815;-82
2021/08/28 19:31:22;;;;;;;34.33;21.00;;;18.10;99.90;;;;;;8239096;28;20192;-79
2021/08/28 19:35:23;;;;;;;26.70;19.07;;;18.10;99.90;;;;;;8240259;28;20191;-79
2021/08/28 19:39:25;;;;;;;28.17;20.03;;;18.10;99.90;;;;;;8245324;28;20216;-83
2021/08/28 19:43:26;;;;;;;27.33;17.10;;;18.00;99.90;;;;;;8241656;28;20850;-81
2021/08/28 19:47:27;;;;;;;31.53;16.03;;;18.00;99.90;;;;;;8262452;28;20454;-80
2021/08/28 19:51:27;;;;;;;21.03;14.23;;;18.00;99.90;;;;;;8257642;28;20193;-82
2021/08/28 19:55:28;;;;;;;16.03;13.10;;;17.90;99.90;;;;;;8235354;28;20204;-80
2021/08/28 19:59:29;;;;;;;17.20;13.90;;;17.90;99.90;;;;;;8255588;28;20216;-80
2021/08/28 20:03:29;;;;;;;17.13;12.17;;;17.90;99.90;;;;;;8246356;28;20190;-79
2021/08/28 20:07:30;;;;;;;15.97;13.07;;;17.90;99.90;;;;;;8257183;28;20235;-79
2021/08/28 20:11:31;;;;;;;20.43;12.00;;;17.90;99.90;;;;;;8262859;28;20698;-80
2021/08/28 20:15:32;;;;;;;17.17;11.63;;;17.80;99.90;;;;;;8248404;28;20240;-79
2021/08/28 20:19:33;;;;;;;18.20;11.93;;;17.80;99.90;;;;;;8259646;28;21348;-78
2021/08/28 20:23:33;;;;;;;19.80;11.30;;;17.80;99.90;;;;;;8249214;28;20452;-81
2021/08/28 20:27:34;;;;;;;18.50;13.20;;;17.70;99.90;;;;;;8253540;28;20190;-79
2021/08/28 20:31:35;;;;;;;15.70;11.20;;;17.70;99.90;;;;;;8253634;28;20298;-80